Time;durP1;ratioP1;P1;durP2;ratioP2;P2;SDS_P1;SDS_P2;PMS_P1;PMS_P2;Temp;Humidity;BMP_temperature;BMP_pressure;BME280_temperature;BME280_humidity;BME280_pressure;Samples;Min_cycle;Max_cycle;Signal;HPM_P1;HPM_P2
2022/12/15 00:39:39;;;;;;;0.10;0.10;;;-2.00;99.90;;;;;;4987091;28;20138;-82
2022/12/15 00:42:05;;;;;;;6.72;2.08;;;-2.00;99.90;;;;;;5002990;28;20031;-82
2022/12/15 00:44:31;;;;;;;1.13;1.13;;;-2.00;99.90;;;;;;4997011;28;20047;-81
2022/12/15 00:46:57;;;;;;;1.02;1.02;;;-2.00;99.90;;;;;;4983445;28;20096;-83
2022/12/15 01:22:33;;;;;;;0.20;0.20;;;-2.00;99.90;;;;;;4984142;28;20057;-86
2022/12/15 01:24:58;;;;;;;0.10;0.10;;;-2.00;99.90;;;;;;4989941;28;20105;-85
2022/12/15 01:27:24;;;;;;;0.10;0.10;;;-2.00;99.90;;;;;;4994045;28;20058;-87
2022/12/15 01:29:50;;;;;;;0.17;0.17;;;-2.00;99.90;;;;;;4993905;28;20076;-84
2022/12/15 01:32:16;;;;;;;0.10;0.10;;;-2.00;99.90;;;;;;4994342;28;20026;-84
2022/12/15 01:34:42;;;;;;;0.13;0.13;;;-2.00;99.90;;;;;;4993685;28;20029;-84
2022/12/15 01:37:08;;;;;;;1.23;1.17;;;-2.00;99.90;;;;;;4982589;28;20018;-84
2022/12/15 01:42:18;;;;;;;0.10;0.10;;;-1.90;99.90;;;;;;4993856;28;20077;-86
2022/12/15 01:44:49;;;;;;;0.93;0.93;;;-2.00;99.90;;;;;;4990279;28;20046;-85
2022/12/15 01:47:15;;;;;;;0.20;0.20;;;-2.00;99.90;;;;;;4991073;28;20061;-85
2022/12/15 01:49:42;;;;;;;0.10;0.10;;;-2.00;99.90;;;;;;4993555;28;20026;-86
2022/12/15 01:52:09;;;;;;;0.10;0.10;;;-2.00;99.90;;;;;;4993277;28;20027;-85
2022/12/15 01:54:56;;;;;;;0.20;0.20;;;-2.10;99.90;;;;;;4994084;28;20034;-84
2022/12/15 01:57:27;;;;;;;0.40;0.40;;;-2.10;99.90;;;;;;4994018;28;20015;-86
2022/12/15 01:59:57;;;;;;;0.30;0.30;;;-2.20;99.90;;;;;;4991743;28;20041;-85
2022/12/15 02:02:25;;;;;;;0.10;0.10;;;-2.20;99.90;;;;;;4976122;28;20049;-85
2022/12/15 02:04:55;;;;;;;0.20;0.20;;;-2.20;99.90;;;;;;4992993;28;20050;-87
2022/12/15 02:07:21;;;;;;;0.30;0.30;;;-2.30;99.90;;;;;;4993350;28;20033;-86
2022/12/15 02:09:50;;;;;;;1.35;1.35;;;-2.30;99.90;;;;;;4976990;28;20018;-86
2022/12/15 02:12:39;;;;;;;0.80;0.80;;;-2.40;99.90;;;;;;5011634;28;20025;-85
2022/12/15 02:15:20;;;;;;;0.13;0.13;;;-2.40;99.90;;;;;;4998641;28;20042;-86
2022/12/15 02:18:08;;;;;;;0.20;0.20;;;-2.50;99.90;;;;;;4991355;28;20014;-84
2022/12/15 02:20:39;;;;;;;0.35;0.35;;;-2.50;99.90;;;;;;4986200;28;20041;-85
2022/12/15 02:23:20;;;;;;;0.52;0.52;;;-2.50;99.90;;;;;;5016388;28;20066;-84
2022/12/15 02:25:55;;;;;;;0.10;0.10;;;-2.60;99.90;;;;;;4997551;28;20022;-85
2022/12/15 02:28:39;;;;;;;0.30;0.30;;;-2.60;99.90;;;;;;4999603;28;20022;-86
2022/12/15 02:34:19;;;;;;;0.30;0.30;;;-2.60;99.90;;;;;;4986709;28;20175;-85
2022/12/15 02:36:54;;;;;;;0.13;0.13;;;-2.70;99.90;;;;;;4996900;28;20022;-85
2022/12/15 02:39:20;;;;;;;0.10;0.10;;;-2.70;99.90;;;;;;4995575;28;20113;-84
2022/12/15 02:41:46;;;;;;;0.10;0.10;;;-2.70;99.90;;;;;;4998108;28;20066;-85
2022/12/15 02:44:37;;;;;;;2.88;2.10;;;-2.70;99.90;;;;;;4994232;28;20018;-84
2022/12/15 02:47:31;;;;;;;0.63;0.63;;;-2.70;99.90;;;;;;4975138;28;20047;-84
2022/12/15 02:50:16;;;;;;;0.98;0.98;;;-2.70;99.90;;;;;;4992939;28;20023;-85
2022/12/15 02:52:57;;;;;;;0.20;0.20;;;-2.80;99.90;;;;;;4963391;28;20026;-86
2022/12/15 02:55:47;;;;;;;0.10;0.10;;;-2.80;99.90;;;;;;4996606;28;20050;-82
2022/12/15 02:58:40;;;;;;;0.10;0.10;;;-2.80;99.90;;;;;;4985790;28;20027;-85
2022/12/15 03:01:18;;;;;;;0.10;0.10;;;-2.80;99.90;;;;;;4964328;28;20018;-85
2022/12/15 03:03:46;;;;;;;0.10;0.10;;;-2.80;99.90;;;;;;4990736;28;20049;-85
2022/12/15 03:06:13;;;;;;;0.10;0.10;;;-2.70;99.90;;;;;;4998601;28;20011;-86
2022/12/15 03:08:39;;;;;;;0.80;0.80;;;-2.70;99.90;;;;;;4979423;28;20498;-81
2022/12/15 03:11:05;;;;;;;1.55;1.55;;;-2.70;99.90;;;;;;4996255;28;20104;-84
2022/12/15 03:13:31;;;;;;;0.20;0.20;;;-2.60;99.90;;;;;;4995973;28;20026;-83
2022/12/15 03:15:58;;;;;;;0.10;0.10;;;-2.60;99.90;;;;;;4978024;28;20096;-83
2022/12/15 03:18:24;;;;;;;0.13;0.13;;;-2.60;99.90;;;;;;4994728;28;20031;-83
2022/12/15 03:20:50;;;;;;;0.10;0.10;;;-2.60;99.90;;;;;;4997062;28;20073;-82
2022/12/15 03:23:15;;;;;;;0.22;0.22;;;-2.50;99.90;;;;;;4977460;28;20081;-83
2022/12/15 03:25:44;;;;;;;1.90;1.85;;;-2.50;99.90;;;;;;4978052;28;20166;-83
2022/12/15 03:28:09;;;;;;;0.10;0.10;;;-2.50;99.90;;;;;;4992146;28;20026;-82
2022/12/15 03:30:35;;;;;;;0.10;0.10;;;-2.60;99.90;;;;;;4996672;28;20081;-83
2022/12/15 03:33:01;;;;;;;0.10;0.10;;;-2.60;99.90;;;;;;4995954;28;20022;-83
2022/12/15 03:35:27;;;;;;;0.10;0.10;;;-2.50;99.90;;;;;;4995274;28;20041;-82
2022/12/15 03:37:53;;;;;;;0.22;0.22;;;-2.50;99.90;;;;;;4994865;28;20422;-84
2022/12/15 03:40:19;;;;;;;0.15;0.15;;;-2.40;99.90;;;;;;4977617;28;20033;-83
2022/12/15 03:42:50;;;;;;;0.30;0.30;;;-2.40;99.90;;;;;;4977715;28;20478;-83
2022/12/15 03:45:22;;;;;;;0.40;0.40;;;-2.40;99.90;;;;;;4997446;28;20042;-83
2022/12/15 03:47:49;;;;;;;0.20;0.20;;;-2.40;99.90;;;;;;4997293;28;20033;-81
2022/12/15 03:50:20;;;;;;;0.10;0.10;;;-2.40;99.90;;;;;;4994900;28;20019;-82
2022/12/15 03:52:55;;;;;;;0.10;0.10;;;-2.40;99.90;;;;;;4995116;28;20517;-82
2022/12/15 03:55:21;;;;;;;0.10;0.10;;;-2.40;99.90;;;;;;4994651;28;20038;-83
2022/12/15 03:57:47;;;;;;;0.10;0.10;;;-2.40;99.90;;;;;;4977669;28;20392;-82
2022/12/15 04:00:14;;;;;;;0.10;0.10;;;-2.50;99.90;;;;;;4995362;28;20026;-83
2022/12/15 04:02:41;;;;;;;0.55;0.55;;;-2.50;99.90;;;;;;5005662;28;20058;-84
2022/12/15 04:05:08;;;;;;;0.25;0.25;;;-2.50;99.90;;;;;;4981932;28;20030;-84
2022/12/15 04:07:33;;;;;;;0.10;0.10;;;-2.50;99.90;;;;;;4978090;28;20033;-84
2022/12/15 04:09:59;;;;;;;0.10;0.10;;;-2.40;99.90;;;;;;4977395;28;20022;-84
2022/12/15 04:12:25;;;;;;;0.17;0.17;;;-2.40;99.90;;;;;;4994982;28;20500;-86
2022/12/15 04:14:52;;;;;;;0.10;0.10;;;-2.40;99.90;;;;;;4977470;28;20022;-86
2022/12/15 04:17:18;;;;;;;0.10;0.10;;;-2.40;99.90;;;;;;4994965;28;20384;-86
2022/12/15 04:22:28;;;;;;;0.10;0.10;;;-2.30;99.90;;;;;;4998825;28;20093;-85
2022/12/15 05:33:43;;;;;;;0.10;0.10;;;-2.20;99.90;;;;;;4999608;28;20926;-88
2022/12/15 05:36:09;;;;;;;0.10;0.10;;;-2.20;99.90;;;;;;4997727;28;20015;-87
2022/12/15 05:38:35;;;;;;;0.20;0.20;;;-2.20;99.90;;;;;;4997007;28;20029;-87
2022/12/15 05:41:01;;;;;;;0.50;0.50;;;-2.20;99.90;;;;;;5000297;28;20022;-86
2022/12/15 05:43:27;;;;;;;0.10;0.10;;;-2.10;99.90;;;;;;5013416;28;20066;-87
2022/12/15 05:45:53;;;;;;;0.65;0.65;;;-2.10;99.90;;;;;;4995126;28;20053;-86
2022/12/15 05:48:19;;;;;;;0.10;0.10;;;-2.20;99.90;;;;;;4994136;28;20476;-86
2022/12/15 05:50:45;;;;;;;0.75;0.75;;;-2.20;99.90;;;;;;4994911;28;20072;-87
2022/12/15 05:53:11;;;;;;;0.10;0.10;;;-2.20;99.90;;;;;;4977148;28;20476;-87
2022/12/15 05:55:36;;;;;;;0.10;0.10;;;-2.30;99.90;;;;;;4976572;28;20395;-86
2022/12/15 05:58:02;;;;;;;0.75;0.75;;;-2.30;99.90;;;;;;4993852;28;20049;-85
2022/12/15 06:00:28;;;;;;;0.10;0.10;;;-2.30;99.90;;;;;;4973907;28;20484;-85
2022/12/15 06:02:54;;;;;;;0.10;0.10;;;-2.40;99.90;;;;;;4993607;28;20041;-85
2022/12/15 06:05:20;;;;;;;0.10;0.10;;;-2.40;99.90;;;;;;4993901;28;20484;-85
2022/12/15 06:07:45;;;;;;;0.10;0.10;;;-2.50;99.90;;;;;;4993724;28;20026;-84
2022/12/15 06:10:11;;;;;;;0.82;0.82;;;-2.60;99.90;;;;;;4992919;28;20022;-84
2022/12/15 06:12:37;;;;;;;4.03;3.08;;;-2.70;99.90;;;;;;4964924;28;20393;-87
2022/12/15 06:15:03;;;;;;;0.10;0.10;;;-2.80;99.90;;;;;;4976692;28;20022;-86
2022/12/15 06:17:30;;;;;;;0.63;0.63;;;-2.90;99.90;;;;;;4995353;28;20041;-84
2022/12/15 06:19:56;;;;;;;0.10;0.10;;;-3.10;99.90;;;;;;4996193;28;20032;-84
2022/12/15 06:22:22;;;;;;;4.00;1.23;;;-3.30;99.90;;;;;;5002883;28;20117;-86
2022/12/15 06:24:48;;;;;;;1.00;1.00;;;-3.50;99.90;;;;;;4996454;28;20026;-88
2022/12/15 06:27:14;;;;;;;0.20;0.20;;;-3.60;99.90;;;;;;4977613;28;20104;-86
2022/12/15 06:29:40;;;;;;;0.20;0.20;;;-3.70;99.90;;;;;;4980937;28;20030;-85
2022/12/15 06:32:05;;;;;;;0.90;0.90;;;-3.70;99.90;;;;;;4997605;28;20480;-86
2022/12/15 06:34:32;;;;;;;0.20;0.20;;;-3.80;99.90;;;;;;4981708;28;20026;-84
2022/12/15 06:37:00;;;;;;;1.58;1.58;;;-3.80;99.90;;;;;;4981621;28;20023;-88
2022/12/15 06:39:26;;;;;;;1.50;1.40;;;-3.90;99.90;;;;;;5000944;28;20026;-87
2022/12/15 06:41:52;;;;;;;0.85;0.85;;;-3.90;99.90;;;;;;5012265;28;20093;-87
2022/12/15 06:44:18;;;;;;;0.63;0.63;;;-3.90;99.90;;;;;;4997934;28;20575;-87
2022/12/15 06:46:45;;;;;;;0.20;0.20;;;-3.80;99.90;;;;;;4993221;28;20035;-86
2022/12/15 06:49:11;;;;;;;0.20;0.20;;;-3.70;99.90;;;;;;4992809;28;20033;-88
2022/12/15 06:51:37;;;;;;;0.45;0.45;;;-3.70;99.90;;;;;;4997465;28;20272;-87
2022/12/15 06:54:06;;;;;;;1.23;1.23;;;-3.70;99.90;;;;;;4997288;28;20058;-87
2022/12/15 06:56:41;;;;;;;0.45;0.45;;;-3.70;99.90;;;;;;4997255;28;20025;-87
2022/12/15 06:59:07;;;;;;;1.00;0.95;;;-3.80;99.90;;;;;;4979948;28;20018;-87
2022/12/15 07:01:34;;;;;;;4.43;4.10;;;-3.90;99.90;;;;;;5000139;28;20034;-87
2022/12/15 07:04:04;;;;;;;6.55;4.18;;;-4.10;99.90;;;;;;5001854;28;20117;-87
2022/12/15 07:06:37;;;;;;;0.30;0.30;;;-4.20;99.90;;;;;;4987957;28;20030;-86
2022/12/15 07:09:09;;;;;;;2.45;1.00;;;-4.20;99.90;;;;;;5000660;28;20030;-86
2022/12/15 07:11:35;;;;;;;1.00;0.93;;;-4.30;99.90;;;;;;4993609;28;20030;-87
2022/12/15 07:14:02;;;;;;;2.03;1.92;;;-4.50;99.90;;;;;;4987295;28;20113;-86
2022/12/15 07:16:27;;;;;;;2.95;1.83;;;-4.60;99.90;;;;;;4979548;28;20037;-87
2022/12/15 07:18:53;;;;;;;3.50;1.75;;;-4.70;99.90;;;;;;4979756;28;20400;-85
2022/12/15 07:21:19;;;;;;;0.75;0.75;;;-4.70;99.90;;;;;;4976805;28;20058;-84
2022/12/15 07:23:45;;;;;;;1.20;1.17;;;-4.80;99.90;;;;;;4979777;28;20109;-82
2022/12/15 07:26:11;;;;;;;2.00;1.60;;;-4.90;99.90;;;;;;4990108;28;20033;-84
2022/12/15 07:28:40;;;;;;;2.15;2.05;;;-4.90;99.90;;;;;;5007515;28;20031;-86
2022/12/15 07:31:09;;;;;;;2.05;1.95;;;-4.80;99.90;;;;;;4976801;28;20030;-85
2022/12/15 07:33:36;;;;;;;0.30;0.30;;;-4.80;99.90;;;;;;4983603;28;20015;-85
2022/12/15 07:36:04;;;;;;;3.20;2.38;;;-4.70;99.90;;;;;;4988524;28;20026;-85
2022/12/15 07:38:30;;;;;;;1.73;1.63;;;-4.80;99.90;;;;;;5005568;28;20033;-83
2022/12/15 07:41:03;;;;;;;6.22;3.30;;;-4.90;99.90;;;;;;4979420;28;20026;-81
2022/12/15 07:43:29;;;;;;;1.95;1.63;;;-4.90;99.90;;;;;;4995269;28;20077;-84
2022/12/15 07:45:56;;;;;;;1.55;1.45;;;-4.90;99.90;;;;;;4976664;28;20101;-85
2022/12/15 07:48:26;;;;;;;4.07;3.25;;;-4.90;99.90;;;;;;4992858;28;20041;-83
2022/12/15 07:51:18;;;;;;;4.45;4.10;;;-5.00;99.90;;;;;;4988886;28;20487;-84
2022/12/15 07:53:44;;;;;;;2.30;2.10;;;-5.00;99.90;;;;;;4991959;28;20166;-83
2022/12/15 07:56:15;;;;;;;5.22;2.40;;;-5.10;99.90;;;;;;4995969;28;20517;-83
2022/12/15 07:58:41;;;;;;;13.20;4.47;;;-5.10;99.90;;;;;;4995396;28;20015;-83
2022/12/15 08:01:11;;;;;;;1.65;1.13;;;-5.10;99.90;;;;;;4995951;28;20376;-83
2022/12/15 08:03:43;;;;;;;10.85;2.45;;;-5.00;99.90;;;;;;4995404;28;20026;-84
2022/12/15 08:06:18;;;;;;;4.30;3.90;;;-4.90;99.90;;;;;;4996414;28;20476;-85
2022/12/15 08:08:44;;;;;;;2.50;2.30;;;-4.90;99.90;;;;;;5001687;28;20026;-86
2022/12/15 08:11:13;;;;;;;7.75;3.88;;;-4.80;99.90;;;;;;4979143;28;20022;-85
2022/12/15 08:13:42;;;;;;;5.55;3.08;;;-4.80;99.90;;;;;;4983557;28;20037;-85
2022/12/15 08:16:14;;;;;;;5.15;3.80;;;-4.80;99.90;;;;;;4977611;28;20037;-84
2022/12/15 08:18:40;;;;;;;1.30;1.17;;;-4.70;99.90;;;;;;4979385;28;20029;-83
2022/12/15 08:21:07;;;;;;;8.48;2.72;;;-4.70;99.90;;;;;;4992696;28;20035;-84
2022/12/15 08:23:34;;;;;;;9.60;4.63;;;-4.90;99.90;;;;;;4991308;28;20113;-84
2022/12/15 08:26:06;;;;;;;3.40;3.13;;;-4.90;99.90;;;;;;4988109;28;20025;-84
2022/12/15 08:28:34;;;;;;;5.95;4.15;;;-4.80;99.90;;;;;;4995183;28;20026;-82
2022/12/15 08:31:04;;;;;;;6.60;3.55;;;-4.90;99.90;;;;;;4996575;28;20044;-83
2022/12/15 08:33:31;;;;;;;7.13;2.83;;;-4.90;99.90;;;;;;4978563;28;20080;-83
2022/12/15 08:35:59;;;;;;;9.82;3.75;;;-4.80;99.90;;;;;;4994512;28;20023;-82
2022/12/15 08:38:25;;;;;;;13.15;5.90;;;-4.70;99.90;;;;;;4994169;28;20033;-83
2022/12/15 08:40:50;;;;;;;8.88;5.72;;;-4.60;99.90;;;;;;4994062;28;20018;-84
2022/12/15 08:43:16;;;;;;;8.20;3.30;;;-4.50;99.90;;;;;;4977542;28;20531;-84
2022/12/15 08:45:43;;;;;;;7.00;4.20;;;-4.40;99.90;;;;;;4996374;28;20039;-83
2022/12/15 08:48:08;;;;;;;7.90;3.45;;;-4.30;99.90;;;;;;4995500;28;20069;-83
2022/12/15 08:50:34;;;;;;;8.00;5.22;;;-4.20;99.90;;;;;;4995324;28;20448;-84
2022/12/15 08:53:00;;;;;;;9.07;4.95;;;-4.20;99.90;;;;;;4961301;28;20392;-83
2022/12/15 08:55:26;;;;;;;14.23;5.80;;;-4.10;99.90;;;;;;4977170;28;20030;-84
2022/12/15 08:57:53;;;;;;;14.07;4.55;;;-4.10;99.90;;;;;;4994970;28;20456;-86
2022/12/15 09:00:19;;;;;;;13.40;4.82;;;-4.00;99.90;;;;;;4996831;28;20073;-87
2022/12/15 09:02:45;;;;;;;13.02;5.38;;;-4.00;99.90;;;;;;4978376;28;20499;-85
2022/12/15 09:05:11;;;;;;;11.15;3.95;;;-4.00;99.90;;;;;;4998423;28;20051;-86
2022/12/15 09:07:36;;;;;;;7.72;4.45;;;-4.00;99.90;;;;;;4990800;28;20170;-82
2022/12/15 09:10:02;;;;;;;11.25;5.72;;;-4.00;99.90;;;;;;4997831;28;20033;-83
2022/12/15 09:12:28;;;;;;;7.15;4.90;;;-4.00;99.90;;;;;;4999556;28;20109;-83
2022/12/15 09:14:54;;;;;;;7.97;2.97;;;-4.00;99.90;;;;;;4991380;28;20029;-84
2022/12/15 09:17:20;;;;;;;5.35;3.67;;;-3.90;99.90;;;;;;4993806;28;20026;-86
2022/12/15 09:19:46;;;;;;;11.55;5.38;;;-3.90;99.90;;;;;;4976731;28;20109;-85
2022/12/15 09:22:12;;;;;;;13.00;5.57;;;-3.80;99.90;;;;;;4994232;28;20105;-86
2022/12/15 09:24:37;;;;;;;7.80;4.00;;;-3.70;99.90;;;;;;4994562;28;20388;-83
2022/12/15 09:27:10;;;;;;;13.45;5.57;;;-3.70;99.90;;;;;;4993787;28;20030;-83
2022/12/15 09:29:35;;;;;;;11.27;4.97;;;-3.70;99.90;;;;;;4975961;28;20030;-82
2022/12/15 09:32:02;;;;;;;13.73;5.80;;;-3.70;99.90;;;;;;4994158;28;20396;-85
2022/12/15 09:34:29;;;;;;;16.83;7.88;;;-3.70;99.90;;;;;;4991318;28;20033;-82
2022/12/15 09:36:55;;;;;;;6.38;4.53;;;-3.70;99.90;;;;;;5003374;28;20042;-83
2022/12/15 09:39:22;;;;;;;13.07;7.63;;;-3.70;99.90;;;;;;4994794;28;20015;-80
2022/12/15 09:41:53;;;;;;;10.93;5.53;;;-3.80;99.90;;;;;;4992393;28;20260;-81
2022/12/15 09:44:21;;;;;;;11.98;6.13;;;-3.90;99.90;;;;;;4975034;28;20026;-81
2022/12/15 09:46:55;;;;;;;12.65;5.50;;;-3.90;99.90;;;;;;4992538;28;20100;-82
2022/12/15 09:49:36;;;;;;;13.18;7.25;;;-3.90;99.90;;;;;;4993312;28;20026;-82
2022/12/15 09:52:11;;;;;;;9.40;5.10;;;-3.80;99.90;;;;;;4991213;28;20108;-82
2022/12/15 09:54:40;;;;;;;11.25;6.82;;;-3.80;99.90;;;;;;4992654;28;20027;-81
2022/12/15 09:57:23;;;;;;;13.10;6.65;;;-3.80;99.90;;;;;;4975155;28;20029;-80
2022/12/15 10:00:10;;;;;;;15.75;7.05;;;-3.90;99.90;;;;;;4992497;28;20109;-80
2022/12/15 10:02:54;;;;;;;12.07;5.63;;;-4.00;99.90;;;;;;4992863;28;20077;-83
2022/12/15 10:05:39;;;;;;;15.23;6.63;;;-4.00;99.90;;;;;;4993566;28;20102;-81
2022/12/15 10:08:05;;;;;;;10.13;7.03;;;-3.90;99.90;;;;;;4994569;28;20446;-83
2022/12/15 10:10:59;;;;;;;9.25;5.63;;;-3.90;99.90;;;;;;4997402;28;20029;-83
2022/12/15 10:13:53;;;;;;;14.38;8.25;;;-3.90;99.90;;;;;;4985224;28;20026;-81
2022/12/15 10:16:51;;;;;;;11.77;5.68;;;-4.00;99.90;;;;;;4994217;28;20106;-84
2022/12/15 10:19:21;;;;;;;9.75;6.18;;;-3.90;99.90;;;;;;4993248;28;20113;-83
2022/12/15 10:21:47;;;;;;;14.05;7.22;;;-3.80;99.90;;;;;;4992523;28;20015;-81
2022/12/15 10:24:21;;;;;;;11.32;6.22;;;-3.80;99.90;;;;;;4988901;28;20096;-83
2022/12/15 10:27:04;;;;;;;15.05;9.38;;;-3.80;99.90;;;;;;4991083;28;20026;-82
2022/12/15 10:29:33;;;;;;;16.08;7.97;;;-3.90;99.90;;;;;;4993084;28;20543;-84
2022/12/15 10:32:22;;;;;;;16.85;8.82;;;-3.90;99.90;;;;;;4992971;28;20365;-84
2022/12/15 10:34:48;;;;;;;21.20;8.80;;;-3.80;99.90;;;;;;4972032;28;20080;-83
2022/12/15 10:37:19;;;;;;;12.60;7.22;;;-3.70;99.90;;;;;;4996494;28;20462;-83
2022/12/15 10:39:48;;;;;;;23.02;10.27;;;-3.70;99.90;;;;;;4978985;28;20118;-82
2022/12/15 10:42:24;;;;;;;21.75;9.90;;;-3.70;99.90;;;;;;4986130;28;20034;-84
2022/12/15 10:44:55;;;;;;;21.67;9.10;;;-3.70;99.90;;;;;;4996256;28;20657;-85
2022/12/15 10:47:24;;;;;;;19.13;8.98;;;-3.70;99.90;;;;;;4996416;28;20022;-82
2022/12/15 10:49:51;;;;;;;18.35;9.63;;;-3.70;99.90;;;;;;4982271;28;20098;-88
2022/12/15 10:52:23;;;;;;;20.42;11.27;;;-3.70;99.90;;;;;;4999035;28;20021;-82
2022/12/15 10:54:53;;;;;;;18.83;9.40;;;-3.70;99.90;;;;;;4978268;28;20461;-82
2022/12/15 10:57:29;;;;;;;23.83;12.80;;;-3.60;99.90;;;;;;5002442;28;20030;-83
2022/12/15 11:00:12;;;;;;;21.67;10.13;;;-3.50;99.90;;;;;;4993818;28;20057;-86
2022/12/15 11:02:37;;;;;;;22.42;11.82;;;-3.40;99.90;;;;;;4993785;28;20030;-86
2022/12/15 11:05:15;;;;;;;24.65;11.68;;;-3.30;99.90;;;;;;5002932;28;20078;-84
2022/12/15 11:07:56;;;;;;;20.75;11.40;;;-3.20;99.90;;;;;;4976652;28;20046;-87
2022/12/15 11:13:39;;;;;;;18.30;10.30;;;-3.30;99.90;;;;;;4989627;28;20084;-87
2022/12/15 11:16:17;;;;;;;17.52;9.45;;;-3.40;99.90;;;;;;4994936;28;20452;-86
2022/12/15 11:18:48;;;;;;;17.70;8.80;;;-3.50;99.90;;;;;;4964884;28;20432;-82
2022/12/15 11:21:31;;;;;;;15.50;9.82;;;-3.70;99.90;;;;;;4996008;28;20061;-84
2022/12/15 11:24:19;;;;;;;23.13;11.57;;;-3.90;99.90;;;;;;4995552;28;20375;-83
2022/12/15 11:26:51;;;;;;;18.83;12.00;;;-4.10;99.90;;;;;;4997038;28;20172;-84
2022/12/15 11:29:22;;;;;;;27.67;13.75;;;-4.20;99.90;;;;;;4996737;28;20550;-84
2022/12/15 11:31:50;;;;;;;21.95;11.25;;;-4.30;99.90;;;;;;4995694;28;20026;-84
2022/12/15 11:34:25;;;;;;;26.33;12.93;;;-4.30;99.90;;;;;;4992503;28;20025;-84
2022/12/15 11:37:26;;;;;;;25.60;11.20;;;-4.20;99.90;;;;;;4995178;28;20030;-88
2022/12/15 11:40:14;;;;;;;21.50;11.05;;;-4.20;99.90;;;;;;4995105;28;20089;-81
2022/12/15 11:42:49;;;;;;;14.93;8.68;;;-4.20;99.90;;;;;;4989045;28;20037;-82
2022/12/15 11:45:36;;;;;;;19.27;10.52;;;-4.30;99.90;;;;;;4990527;28;20504;-83
2022/12/15 11:48:16;;;;;;;21.20;10.80;;;-4.40;99.90;;;;;;4987555;28;20089;-83
2022/12/15 11:50:51;;;;;;;18.52;11.43;;;-4.30;99.90;;;;;;4993378;28;20018;-82
2022/12/15 11:53:45;;;;;;;21.63;9.70;;;-4.30;99.90;;;;;;4994654;28;20023;-80
2022/12/15 11:56:33;;;;;;;20.35;10.63;;;-4.20;99.90;;;;;;4971609;28;20029;-81
2022/12/15 11:59:35;;;;;;;25.02;12.88;;;-4.20;99.90;;;;;;4994499;28;20070;-82
2022/12/15 12:02:23;;;;;;;17.90;11.35;;;-4.10;99.90;;;;;;4971661;28;20071;-83
2022/12/15 12:05:01;;;;;;;21.63;13.38;;;-4.00;99.90;;;;;;4984785;28;20034;-84
2022/12/15 12:07:44;;;;;;;21.58;11.43;;;-3.90;99.90;;;;;;4995419;28;20022;-83
2022/12/15 12:10:32;;;;;;;22.25;12.02;;;-3.80;99.90;;;;;;4994941;28;20018;-84
2022/12/15 12:13:16;;;;;;;22.63;11.50;;;-3.80;99.90;;;;;;4978163;28;20025;-85
2022/12/15 12:16:08;;;;;;;19.02;9.52;;;-3.80;99.90;;;;;;4994804;28;20026;-86
2022/12/15 12:18:38;;;;;;;22.55;10.93;;;-3.80;99.90;;;;;;4991887;28;20041;-83
2022/12/15 12:21:09;;;;;;;17.48;9.80;;;-3.80;99.90;;;;;;4995822;28;20034;-83
2022/12/15 12:24:24;;;;;;;24.05;11.57;;;-3.80;99.90;;;;;;4995117;28;20035;-82
2022/12/15 12:27:10;;;;;;;19.17;10.32;;;-3.80;99.90;;;;;;4956319;28;20019;-84
2022/12/15 12:29:48;;;;;;;21.00;9.77;;;-3.70;99.90;;;;;;4986673;28;20030;-83
2022/12/15 12:32:39;;;;;;;25.35;12.85;;;-3.70;99.90;;;;;;4993975;28;20037;-87
2022/12/15 12:35:13;;;;;;;21.73;11.93;;;-3.80;99.90;;;;;;4992915;28;20365;-85
2022/12/15 12:37:51;;;;;;;18.23;9.85;;;-3.80;99.90;;;;;;4994617;28;20030;-85
2022/12/15 12:40:21;;;;;;;;;;;-3.80;99.90;;;;;;4978022;28;20023;-83
2022/12/15 12:42:56;;;;;;;25.45;12.73;;;-3.90;99.90;;;;;;4999833;28;19968;-83
2022/12/15 12:45:43;;;;;;;17.70;11.07;;;-4.00;99.90;;;;;;4992618;28;20055;-82
2022/12/15 12:48:25;;;;;;;23.90;10.82;;;-4.00;99.90;;;;;;4986788;28;20422;-84
2022/12/15 12:51:06;;;;;;;30.42;15.43;;;-3.90;99.90;;;;;;4977612;28;20157;-81
2022/12/15 12:53:33;;;;;;;31.27;13.30;;;-3.90;99.90;;;;;;4998279;28;20101;-82
2022/12/15 12:55:59;;;;;;;24.48;13.30;;;-3.90;99.90;;;;;;4996079;28;20105;-85
2022/12/15 12:58:49;;;;;;;22.30;12.38;;;-3.80;99.90;;;;;;4998539;28;20534;-84
2022/12/15 13:01:23;;;;;;;81.20;32.70;;;-3.70;99.90;;;;;;4978534;28;20034;-83
2022/12/15 13:04:06;;;;;;;69.15;27.15;;;-3.70;99.90;;;;;;4976010;28;20454;-82
2022/12/15 13:06:34;;;;;;;38.08;15.48;;;-3.70;99.90;;;;;;4993859;28;20042;-81
2022/12/15 13:09:15;;;;;;;22.75;13.23;;;-3.70;99.90;;;;;;4993709;28;20033;-82
2022/12/15 13:11:47;;;;;;;22.77;11.98;;;-3.70;99.90;;;;;;4988552;28;20055;-81
2022/12/15 13:14:40;;;;;;;24.10;13.05;;;-3.70;99.90;;;;;;4991333;28;20045;-81
2022/12/15 13:17:11;;;;;;;23.92;11.93;;;-3.60;99.90;;;;;;4988013;28;20053;-84
2022/12/15 13:19:55;;;;;;;27.58;13.80;;;-3.60;99.90;;;;;;4998871;28;20042;-82
2022/12/15 13:22:34;;;;;;;34.30;16.48;;;-3.60;99.90;;;;;;4993140;28;20034;-84
2022/12/15 13:25:01;;;;;;;25.05;13.38;;;-3.50;99.90;;;;;;4993312;28;20025;-82
2022/12/15 13:27:35;;;;;;;;;;;-3.50;99.90;;;;;;4976846;28;20052;-85
2022/12/15 13:30:23;;;;;;;24.08;11.73;;;-3.50;99.90;;;;;;4959921;28;19917;-85
2022/12/15 13:33:15;;;;;;;23.13;13.07;;;-3.50;99.90;;;;;;4976001;28;20033;-85
2022/12/15 13:35:42;;;;;;;19.65;11.60;;;-3.40;99.90;;;;;;4976565;28;20415;-81
2022/12/15 13:38:17;;;;;;;26.98;14.05;;;-3.50;99.90;;;;;;4975117;28;20049;-82
2022/12/15 13:40:53;;;;;;;30.52;12.98;;;-3.50;99.90;;;;;;4992949;28;20029;-83
2022/12/15 13:43:27;;;;;;;17.70;11.48;;;-3.50;99.90;;;;;;4985937;28;20050;-81
2022/12/15 13:46:13;;;;;;;22.48;11.93;;;-3.50;99.90;;;;;;4988932;28;20050;-81
2022/12/15 13:48:44;;;;;;;26.05;13.25;;;-3.50;99.90;;;;;;4992466;28;20040;-81
2022/12/15 13:51:22;;;;;;;23.33;12.15;;;-3.50;99.90;;;;;;4992908;28;20084;-82
2022/12/15 13:54:22;;;;;;;25.02;13.70;;;-3.50;99.90;;;;;;4992553;28;20384;-83
2022/12/15 13:56:51;;;;;;;25.58;12.68;;;-3.50;99.90;;;;;;4993718;28;20427;-81
2022/12/15 13:59:34;;;;;;;23.92;13.27;;;-3.50;99.90;;;;;;4995092;28;20468;-83
2022/12/15 14:02:20;;;;;;;19.85;11.27;;;-3.50;99.90;;;;;;4977604;28;20026;-80
2022/12/15 14:05:08;;;;;;;20.75;11.48;;;-3.50;99.90;;;;;;4994074;28;20032;-83
2022/12/15 14:07:35;;;;;;;27.23;15.13;;;-3.50;99.90;;;;;;4999505;28;20070;-83
2022/12/15 14:10:05;;;;;;;23.33;12.27;;;-3.50;99.90;;;;;;4998893;28;20027;-84
2022/12/15 14:12:34;;;;;;;27.80;13.45;;;-3.50;99.90;;;;;;4963644;28;20058;-82
2022/12/15 14:15:01;;;;;;;22.42;12.27;;;-3.50;99.90;;;;;;4991663;28;20034;-82
2022/12/15 14:17:31;;;;;;;22.23;11.95;;;-3.60;99.90;;;;;;4993492;28;20023;-83
2022/12/15 14:20:09;;;;;;;20.33;11.38;;;-3.60;99.90;;;;;;4992374;28;20397;-82
2022/12/15 14:22:35;;;;;;;19.13;11.18;;;-3.60;99.90;;;;;;4993540;28;20049;-82
2022/12/15 14:25:20;;;;;;;22.30;12.32;;;-3.60;99.90;;;;;;4979867;28;20020;-82
2022/12/15 14:27:50;;;;;;;20.70;11.50;;;-3.70;99.90;;;;;;4975458;28;20496;-86
2022/12/15 14:30:21;;;;;;;22.10;11.45;;;-3.70;99.90;;;;;;4990937;28;20112;-81
2022/12/15 14:32:52;;;;;;;19.98;11.13;;;-3.80;99.90;;;;;;4992728;28;20085;-81
2022/12/15 14:35:37;;;;;;;16.80;10.10;;;-3.80;99.90;;;;;;4992683;28;20373;-84
2022/12/15 14:38:13;;;;;;;16.23;10.25;;;-3.80;99.90;;;;;;4992474;28;20038;-82
2022/12/15 14:40:44;;;;;;;14.68;9.32;;;-3.80;99.90;;;;;;4992843;28;20579;-82
2022/12/15 14:43:29;;;;;;;17.77;10.50;;;-4.00;99.90;;;;;;4975172;28;20054;-81
2022/12/15 14:46:13;;;;;;;28.98;13.50;;;-4.20;99.90;;;;;;4992058;28;20061;-81
2022/12/15 14:49:03;;;;;;;20.33;12.07;;;-4.30;99.90;;;;;;4974737;28;20026;-82
2022/12/15 14:51:37;;;;;;;25.63;12.05;;;-4.40;99.90;;;;;;4992777;28;20480;-82
2022/12/15 14:54:06;;;;;;;21.70;10.73;;;-4.40;99.90;;;;;;4975192;28;20018;-81
2022/12/15 14:56:34;;;;;;;23.92;14.02;;;-4.50;99.90;;;;;;4979213;28;20034;-83
2022/12/15 14:59:36;;;;;;;19.60;10.75;;;-4.50;99.90;;;;;;4996726;28;20480;-82
2022/12/15 15:02:25;;;;;;;29.73;14.10;;;-4.50;99.90;;;;;;4916922;29;20040;-81
2022/12/15 15:04:59;;;;;;;20.77;11.77;;;-4.60;99.90;;;;;;4901003;29;20493;-82
2022/12/15 15:07:36;;;;;;;47.92;24.65;;;-4.60;99.90;;;;;;4901305;29;20076;-83
2022/12/15 15:10:21;;;;;;;19.23;11.68;;;-4.60;99.90;;;;;;4917801;29;20131;-84
2022/12/15 15:12:48;;;;;;;16.83;10.73;;;-4.60;99.90;;;;;;4919265;29;20063;-83
2022/12/15 15:15:19;;;;;;;19.63;10.18;;;-4.50;99.90;;;;;;4902479;29;20020;-81
2022/12/15 15:17:57;;;;;;;24.95;11.95;;;-4.50;99.90;;;;;;4902711;29;20068;-83
2022/12/15 15:20:33;;;;;;;21.75;10.70;;;-4.60;99.90;;;;;;4922416;29;20036;-82
2022/12/15 15:23:14;;;;;;;20.50;11.85;;;-4.60;99.90;;;;;;4917806;29;20828;-82
2022/12/15 15:25:53;;;;;;;27.58;13.00;;;-4.60;99.90;;;;;;4918222;29;20024;-82
2022/12/15 15:28:18;;;;;;;27.13;12.85;;;-4.50;99.90;;;;;;4925288;29;20031;-82
2022/12/15 15:30:54;;;;;;;17.25;11.23;;;-4.50;99.90;;;;;;4907815;29;20048;-84
2022/12/15 15:33:22;;;;;;;21.55;13.13;;;-4.50;99.90;;;;;;4905178;29;20020;-84
2022/12/15 15:35:53;;;;;;;24.10;12.80;;;-4.60;99.90;;;;;;4930971;28;20478;-86
2022/12/15 15:38:27;;;;;;;22.75;12.30;;;-4.60;99.90;;;;;;4988459;28;20030;-87
2022/12/15 15:40:58;;;;;;;23.42;12.52;;;-4.60;99.90;;;;;;4984346;28;20077;-84